Robinson Ranch, California
Current Conditions -  °F | °C
As of 3:53 AM on Sunday 25 Jan 2015 (Local Time) from KSNA Reporting Station
Clear Clear  
Wind Chill: 55°   Ceiling: Unl
Heat Index: 55°   Visibility: 10mi
Dew Point: 32°   Wind: 0mph
Humidity: 42%   Direction: NA
Pressure: 30.01"   Gusts: NA
Location:  33.6153°N, 117.532°W
Report Text: KSNA 251153Z AUTO 00000KT 10SM CLR 13/00 A3001 RMK AO2 SLP159 T01280000 10233 20128 58003 TSNO $
Loading
Personal Weather Stations






























Interactive Weather Map New forecast layout! Learn more

10-Day Weather Forecast

Advertisements
Track Severe Weather on mobile